createdAt,value
2019-04-03T00:00:54.586Z,63.89
2019-04-03T00:03:25.787Z,63.76
2019-04-03T00:05:57.033Z,63.77
2019-04-03T00:08:28.926Z,63.83
2019-04-03T00:11:00.242Z,63.70
2019-04-03T00:13:33.418Z,63.64
2019-04-03T00:16:06.307Z,63.49
2019-04-03T00:18:37.502Z,63.91
2019-04-03T00:21:08.906Z,64.63
2019-04-03T00:23:40.079Z,64.51
2019-04-03T00:26:11.312Z,64.36
2019-04-03T00:28:42.505Z,64.11
2019-04-03T00:31:13.734Z,64.12
2019-04-03T00:33:45.106Z,65.64
2019-04-03T00:36:16.751Z,65.89
2019-04-03T00:38:48.003Z,65.73
2019-04-03T00:41:19.288Z,65.51
2019-04-03T00:43:50.622Z,65.52
2019-04-03T00:46:22.802Z,65.53
2019-04-03T00:48:55.642Z,65.31
2019-04-03T00:51:28.505Z,65.11
2019-04-03T00:54:01.985Z,64.79
2019-04-03T00:56:33.285Z,64.48
2019-04-03T00:59:04.466Z,64.72
2019-04-03T01:01:35.651Z,64.84
2019-04-03T01:04:06.872Z,64.79
2019-04-03T01:06:38.062Z,64.96
2019-04-03T01:09:09.451Z,64.85
2019-04-03T01:11:40.658Z,66.00
2019-04-03T01:14:12.003Z,66.33
2019-04-03T01:16:45.984Z,66.66
2019-04-03T01:19:16.334Z,66.91
2019-04-03T01:21:50.619Z,66.56
2019-04-03T01:24:32.161Z,66.13
2019-04-03T01:27:04.330Z,65.70
2019-04-03T01:29:56.339Z,65.85
2019-04-03T01:32:27.584Z,66.93
2019-04-03T01:35:11.275Z,66.34
2019-04-03T01:37:58.590Z,66.38
2019-04-03T01:40:34.498Z,65.88
2019-04-03T01:43:09.089Z,66.04
2019-04-03T01:45:57.336Z,65.63
2019-04-03T01:48:30.341Z,65.39
2019-04-03T01:51:09.608Z,65.53
2019-04-03T01:53:53.214Z,65.98
2019-04-03T01:56:31.860Z,65.96
2019-04-03T01:59:20.001Z,66.13
2019-04-03T02:02:20.809Z,66.32
2019-04-03T02:05:14.042Z,66.14
2019-04-03T02:08:07.992Z,66.25
2019-04-03T02:10:49.223Z,65.61
2019-04-03T02:13:32.143Z,65.91
2019-04-03T02:16:05.986Z,66.40
2019-04-03T02:19:07.666Z,67.18
2019-04-03T02:21:38.857Z,66.95
2019-04-03T02:24:11.371Z,66.77
2019-04-03T02:26:42.657Z,66.50
2019-04-03T02:29:13.953Z,66.31
2019-04-03T02:31:45.334Z,65.93
2019-04-03T02:34:16.812Z,66.65
2019-04-03T02:36:48.047Z,66.38
2019-04-03T02:39:19.415Z,66.00
2019-04-03T02:41:50.632Z,66.11
2019-04-03T02:44:21.812Z,65.97
2019-04-03T02:46:53.196Z,65.83
2019-04-03T02:49:25.625Z,66.24
2019-04-03T02:51:57.655Z,66.41
2019-04-03T02:54:29.796Z,66.40
2019-04-03T02:57:01.322Z,66.45
2019-04-03T02:59:32.637Z,66.52
2019-04-03T03:02:03.883Z,66.50
2019-04-03T03:04:35.165Z,66.47
2019-04-03T03:07:06.476Z,66.16
2019-04-03T03:09:37.799Z,66.31
2019-04-03T03:12:09.061Z,66.37
2019-04-03T03:14:40.699Z,66.12
2019-04-03T03:17:12.396Z,66.97
2019-04-03T03:19:43.710Z,66.65
2019-04-03T03:22:18.067Z,66.89
2019-04-03T03:24:48.288Z,67.05
2019-04-03T03:27:19.512Z,66.55
2019-04-03T03:29:50.690Z,66.49
2019-04-03T03:32:31.571Z,67.33
2019-04-03T03:35:07.669Z,67.27
2019-04-03T03:37:28.102Z,67.15
2019-04-03T03:39:59.720Z,67.13
2019-04-03T03:42:32.171Z,67.14
2019-04-03T03:45:04.341Z,68.06
2019-04-03T03:47:37.185Z,67.71
2019-04-03T03:50:09.562Z,67.99
2019-04-03T03:52:40.801Z,67.50
2019-04-03T03:55:12.483Z,67.61
2019-04-03T03:57:43.923Z,67.53
2019-04-03T04:00:17.028Z,67.51
2019-04-03T04:02:48.253Z,67.41
2019-04-03T04:05:22.183Z,67.34
2019-04-03T04:07:53.503Z,66.94
2019-04-03T04:10:26.657Z,66.94
2019-04-03T04:12:59.610Z,67.14
2019-04-03T04:15:31.652Z,67.44
2019-04-03T04:18:03.951Z,66.95
2019-04-03T04:20:44.457Z,66.68
2019-04-03T04:23:15.677Z,66.70
2019-04-03T04:26:01.616Z,66.94
2019-04-03T04:28:57.011Z,67.27
2019-04-03T04:31:21.787Z,67.95
2019-04-03T04:33:52.998Z,67.43
2019-04-03T04:36:24.956Z,67.47
2019-04-03T04:38:57.918Z,67.25
2019-04-03T04:41:29.248Z,67.65
2019-04-03T04:44:01.151Z,67.64
2019-04-03T04:46:32.331Z,68.00
2019-04-03T04:49:03.553Z,68.55
2019-04-03T04:51:34.747Z,68.22
2019-04-03T04:54:05.937Z,68.16
2019-04-03T04:56:37.794Z,66.68
2019-04-03T04:59:09.811Z,67.67
2019-04-03T05:01:41.028Z,67.43
2019-04-03T05:04:15.040Z,67.54
2019-04-03T05:06:45.166Z,67.64
2019-04-03T05:09:16.341Z,68.00
2019-04-03T05:11:47.581Z,68.50
2019-04-03T05:14:18.801Z,68.34
2019-04-03T05:16:50.171Z,67.80
2019-04-03T05:19:21.390Z,67.35
2019-04-03T05:21:53.504Z,66.81
2019-04-03T05:24:24.688Z,66.84
2019-04-03T05:26:55.972Z,66.61
2019-04-03T05:29:27.583Z,66.00
2019-04-03T05:31:59.063Z,66.65
2019-04-03T05:34:30.349Z,66.88
2019-04-03T05:37:01.756Z,67.68
2019-04-03T05:39:32.934Z,67.99
2019-04-03T05:42:04.166Z,68.58
2019-04-03T05:44:35.597Z,68.04
2019-04-03T05:47:08.110Z,67.67
2019-04-03T05:49:39.767Z,67.49
2019-04-03T05:52:10.930Z,67.14
2019-04-03T05:54:44.374Z,67.17
2019-04-03T05:57:15.485Z,66.80
2019-04-03T05:59:59.163Z,66.42
2019-04-03T06:02:21.925Z,66.62
2019-04-03T06:04:53.012Z,66.83
2019-04-03T06:07:24.218Z,67.23
2019-04-03T06:09:58.493Z,67.64
2019-04-03T06:12:28.552Z,67.27
2019-04-03T06:14:59.821Z,67.32
2019-04-03T06:17:31.063Z,67.01
2019-04-03T06:20:02.266Z,66.83
2019-04-03T06:22:33.501Z,66.81
2019-04-03T06:25:05.098Z,66.66
2019-04-03T06:27:36.427Z,66.24
2019-04-03T06:30:07.803Z,65.96
2019-04-03T06:32:40.026Z,66.21
2019-04-03T06:35:13.267Z,66.04
2019-04-03T06:37:44.174Z,66.47
2019-04-03T06:40:15.416Z,66.49
2019-04-03T06:42:46.652Z,66.13
2019-04-03T06:45:18.180Z,65.71
2019-04-03T06:47:49.378Z,65.71
2019-04-03T06:50:20.564Z,65.22
2019-04-03T06:52:53.035Z,65.05
2019-04-03T06:55:25.568Z,64.93
2019-04-03T06:57:57.417Z,64.88
2019-04-03T07:00:28.877Z,64.64
2019-04-03T07:03:01.505Z,65.62
2019-04-03T07:05:33.148Z,64.94
2019-04-03T07:08:05.867Z,64.47
2019-04-03T07:10:40.076Z,64.58
2019-04-03T07:13:10.184Z,64.38
2019-04-03T07:15:41.703Z,64.01
2019-04-03T07:18:13.108Z,64.25
2019-04-03T07:20:44.332Z,64.52
2019-04-03T07:23:15.526Z,64.17
2019-04-03T07:25:46.783Z,63.97
2019-04-03T07:28:18.006Z,65.54
2019-04-03T07:30:52.944Z,65.47
2019-04-03T07:33:23.482Z,62.92
2019-04-03T07:35:55.870Z,60.60
2019-04-03T07:38:27.067Z,57.29
2019-04-03T07:40:58.402Z,53.55
2019-04-03T07:43:29.803Z,51.46
2019-04-03T07:46:01.710Z,51.46
2019-04-03T07:48:34.079Z,51.09
2019-04-03T07:51:05.607Z,50.74
2019-04-03T07:53:36.853Z,49.04
2019-04-03T07:56:08.683Z,46.68
2019-04-03T07:58:40.009Z,48.41
2019-04-03T08:01:11.636Z,45.94
2019-04-03T08:03:43.085Z,47.16
2019-04-03T08:06:15.538Z,44.25
2019-04-03T08:08:46.726Z,42.63
2019-04-03T08:11:18.766Z,43.40
2019-04-03T08:13:51.247Z,40.63
2019-04-03T08:16:22.449Z,40.34
2019-04-03T08:18:53.776Z,38.82
2019-04-03T08:21:25.333Z,38.34
2019-04-03T08:23:56.648Z,39.92
2019-04-03T08:26:27.928Z,38.91
2019-04-03T08:29:01.731Z,37.90
2019-04-03T08:31:32.479Z,38.21
2019-04-03T08:34:14.875Z,38.36
2019-04-03T08:36:38.407Z,37.24
2019-04-03T08:39:09.506Z,37.73
2019-04-03T08:41:40.833Z,37.18
2019-04-03T08:44:11.987Z,36.67
2019-04-03T08:46:44.024Z,37.05
2019-04-03T08:49:15.502Z,36.74
2019-04-03T08:51:47.837Z,36.47
2019-04-03T08:54:19.505Z,35.52
2019-04-03T08:56:50.805Z,34.51
2019-04-03T08:59:22.195Z,35.72
2019-04-03T09:01:55.278Z,34.69
2019-04-03T09:04:26.522Z,34.44
2019-04-03T09:06:57.686Z,34.74
2019-04-03T09:09:30.083Z,34.71
2019-04-03T09:12:02.444Z,34.75
2019-04-03T09:14:33.692Z,34.90
2019-04-03T09:17:05.257Z,35.01
2019-04-03T09:19:36.580Z,34.44
2019-04-03T09:22:07.949Z,34.81
2019-04-03T09:24:40.710Z,34.33
2019-04-03T09:27:12.192Z,34.75
2019-04-03T09:29:45.168Z,33.06
2019-04-03T09:32:16.946Z,32.40
2019-04-03T09:34:48.388Z,32.12
2019-04-03T09:37:20.790Z,32.09
2019-04-03T09:39:52.042Z,32.83
2019-04-03T09:42:23.282Z,33.63
2019-04-03T09:44:56.192Z,32.77
2019-04-03T09:47:28.406Z,35.01
2019-04-03T09:49:59.706Z,35.25
2019-04-03T09:52:39.950Z,36.11
2019-04-03T09:55:04.074Z,34.70
2019-04-03T09:57:35.373Z,34.80
2019-04-03T10:00:09.890Z,35.37
2019-04-03T10:02:40.307Z,33.64
2019-04-03T10:05:12.501Z,36.17
2019-04-03T10:07:45.457Z,34.19
2019-04-03T10:10:17.088Z,32.79
2019-04-03T10:12:49.139Z,32.51
2019-04-03T10:15:20.821Z,32.31
2019-04-03T10:17:52.001Z,33.17
2019-04-03T10:20:23.546Z,31.94
2019-04-03T10:22:56.356Z,31.37
2019-04-03T10:25:27.630Z,31.17
2019-04-03T10:27:58.987Z,31.26
2019-04-03T10:30:30.153Z,30.50
2019-04-03T10:33:01.344Z,31.24
2019-04-03T10:35:32.788Z,31.14
2019-04-03T10:38:04.169Z,31.86
2019-04-03T10:40:35.702Z,31.96
2019-04-03T10:43:06.892Z,31.65
2019-04-03T10:45:39.180Z,30.37
2019-04-03T10:48:10.567Z,31.15
2019-04-03T10:50:41.763Z,30.97
2019-04-03T10:53:13.098Z,31.25
2019-04-03T10:55:45.225Z,30.86
2019-04-03T10:58:16.797Z,31.94
2019-04-03T11:00:49.310Z,33.54
2019-04-03T11:03:20.667Z,34.76
2019-04-03T11:05:51.963Z,35.67
2019-04-03T11:08:23.144Z,35.52
2019-04-03T11:10:55.919Z,36.01
2019-04-03T11:13:29.113Z,36.81
2019-04-03T11:16:00.456Z,36.09
2019-04-03T11:18:31.628Z,35.60
2019-04-03T11:21:02.859Z,33.78
2019-04-03T11:23:38.986Z,31.94
2019-04-03T11:26:06.973Z,31.74
2019-04-03T11:28:39.074Z,32.88
2019-04-03T11:31:10.734Z,34.17
2019-04-03T11:33:45.867Z,35.30
2019-04-03T11:36:16.067Z,34.07
2019-04-03T11:38:47.754Z,32.58
2019-04-03T11:41:21.414Z,32.67
2019-04-03T11:43:52.260Z,29.96
2019-04-03T11:46:23.419Z,29.82
2019-04-03T11:48:54.631Z,29.64
2019-04-03T11:51:28.927Z,29.97
2019-04-03T11:53:58.956Z,31.45
2019-04-03T11:56:30.249Z,30.39
2019-04-03T11:59:01.444Z,29.95
2019-04-03T12:01:33.145Z,29.77
2019-04-03T12:04:04.925Z,28.55
2019-04-03T12:06:36.442Z,28.95
2019-04-03T12:09:08.391Z,28.58
2019-04-03T12:11:40.100Z,28.47
2019-04-03T12:14:11.691Z,30.06
2019-04-03T12:16:43.031Z,31.59
2019-04-03T12:19:14.398Z,33.12
2019-04-03T12:21:45.629Z,32.75
2019-04-03T12:24:17.111Z,32.74
2019-04-03T12:26:49.521Z,31.81
2019-04-03T12:29:22.737Z,31.88
2019-04-03T12:31:54.388Z,31.15
2019-04-03T12:34:25.584Z,30.95
2019-04-03T12:36:56.963Z,31.35
2019-04-03T12:39:28.368Z,32.84
2019-04-03T12:42:00.463Z,33.63
2019-04-03T12:44:31.997Z,33.58
2019-04-03T12:47:06.933Z,32.93
2019-04-03T12:49:36.189Z,32.90
2019-04-03T12:52:07.513Z,33.38
2019-04-03T12:54:38.728Z,33.99
2019-04-03T12:57:09.940Z,34.40
2019-04-03T12:59:41.363Z,34.53
2019-04-03T13:02:12.569Z,33.72
2019-04-03T13:04:43.826Z,33.97
2019-04-03T13:07:15.162Z,33.65
2019-04-03T13:09:46.728Z,33.21
2019-04-03T13:12:20.621Z,34.21
2019-04-03T13:14:51.176Z,33.06
2019-04-03T13:17:22.470Z,32.53
2019-04-03T13:19:53.647Z,33.08
2019-04-03T13:22:24.883Z,33.23
2019-04-03T13:24:56.460Z,32.42
2019-04-03T13:27:30.682Z,32.50
2019-04-03T13:30:01.584Z,32.59
2019-04-03T13:32:32.886Z,32.68
2019-04-03T13:35:05.480Z,33.28
2019-04-03T13:37:39.069Z,33.86
2019-04-03T13:40:10.250Z,34.07
2019-04-03T13:42:42.284Z,34.91
2019-04-03T13:45:13.664Z,34.47
2019-04-03T13:47:47.003Z,33.76
2019-04-03T13:50:21.630Z,34.07
2019-04-03T13:52:52.371Z,33.76
2019-04-03T13:55:23.733Z,34.39
2019-04-03T13:57:56.093Z,32.82
2019-04-03T14:00:27.710Z,32.21
2019-04-03T14:02:59.280Z,32.67
2019-04-03T14:05:32.865Z,31.32
2019-04-03T14:08:06.044Z,32.14
2019-04-03T14:10:37.349Z,32.82
2019-04-03T14:13:11.860Z,32.78
2019-04-03T14:15:42.242Z,33.74
2019-04-03T14:18:14.887Z,34.57
2019-04-03T14:20:46.128Z,34.81
2019-04-03T14:23:17.311Z,34.46
2019-04-03T14:25:49.260Z,34.32
2019-04-03T14:28:20.868Z,35.90
2019-04-03T14:30:52.791Z,35.04
2019-04-03T14:33:25.500Z,34.38
2019-04-03T14:35:57.213Z,34.85
2019-04-03T14:38:29.079Z,35.34
2019-04-03T14:41:00.816Z,35.88
2019-04-03T14:43:33.609Z,36.31
2019-04-03T14:46:06.533Z,36.48
2019-04-03T14:48:38.365Z,36.10
2019-04-03T14:51:11.752Z,36.79
2019-04-03T14:53:42.580Z,37.58
2019-04-03T14:56:17.315Z,38.02
2019-04-03T14:58:50.517Z,38.16
2019-04-03T15:01:23.949Z,38.48
2019-04-03T15:03:55.133Z,39.01
2019-04-03T15:06:26.732Z,39.55
2019-04-03T15:08:58.106Z,39.60
2019-04-03T15:11:29.584Z,39.29
2019-04-03T15:14:00.883Z,39.17
2019-04-03T15:16:32.321Z,37.81
2019-04-03T15:19:03.569Z,36.95
2019-04-03T15:21:36.459Z,36.77
2019-04-03T15:24:11.218Z,37.72
2019-04-03T15:26:42.145Z,38.15
2019-04-03T15:29:13.644Z,38.74
2019-04-03T15:31:46.687Z,39.54
2019-04-03T15:34:18.469Z,38.87
2019-04-03T15:36:51.521Z,38.67
2019-04-03T15:39:22.742Z,38.21
2019-04-03T15:41:54.229Z,37.83
2019-04-03T15:44:27.483Z,38.45
2019-04-03T15:46:59.238Z,38.46
2019-04-03T15:49:31.909Z,37.63
2019-04-03T15:52:04.324Z,35.82
2019-04-03T15:54:35.506Z,36.10
2019-04-03T15:57:07.076Z,36.52
2019-04-03T15:59:38.615Z,35.99
2019-04-03T16:02:12.045Z,36.23
2019-04-03T16:04:43.174Z,37.07
2019-04-03T16:07:14.400Z,37.14
2019-04-03T16:09:45.630Z,37.06
2019-04-03T16:12:16.877Z,37.69
2019-04-03T16:14:48.789Z,37.26
2019-04-03T16:17:21.213Z,35.87
2019-04-03T16:19:53.094Z,36.75
2019-04-03T16:22:24.854Z,37.01
2019-04-03T16:24:56.046Z,37.69
2019-04-03T16:27:29.232Z,38.34
2019-04-03T16:30:00.676Z,38.72
2019-04-03T16:32:33.864Z,39.04
2019-04-03T16:35:05.918Z,38.92
2019-04-03T16:37:38.458Z,39.18
2019-04-03T16:40:11.244Z,38.55
2019-04-03T16:42:43.256Z,38.93
2019-04-03T16:45:15.808Z,39.23
2019-04-03T16:47:47.057Z,39.12
2019-04-03T16:50:19.151Z,39.01
2019-04-03T16:52:50.743Z,38.70
2019-04-03T16:55:22.732Z,38.96
2019-04-03T16:57:55.411Z,39.39
2019-04-03T17:00:27.526Z,40.03
2019-04-03T17:02:58.845Z,40.79
2019-04-03T17:05:30.058Z,41.21
2019-04-03T17:08:01.294Z,41.60
2019-04-03T17:10:33.083Z,42.28
2019-04-03T17:13:04.318Z,41.33
2019-04-03T17:15:35.866Z,39.55
2019-04-03T17:18:07.249Z,39.28
2019-04-03T17:20:38.454Z,39.59
2019-04-03T17:23:12.791Z,39.84
2019-04-03T17:25:48.187Z,40.38
2019-04-03T17:28:15.542Z,39.97
2019-04-03T17:30:49.662Z,40.43
2019-04-03T17:33:19.684Z,40.52
2019-04-03T17:35:51.263Z,41.08
2019-04-03T17:38:22.956Z,41.40
2019-04-03T17:40:54.554Z,40.88
2019-04-03T17:43:26.230Z,41.42
2019-04-03T17:45:57.429Z,40.64
2019-04-03T17:48:31.057Z,40.38
2019-04-03T17:51:02.643Z,40.41
2019-04-03T17:53:34.865Z,40.40
2019-04-03T17:56:07.521Z,40.50
2019-04-03T17:58:38.706Z,39.97
2019-04-03T18:01:10.134Z,40.54
2019-04-03T18:03:41.350Z,40.19
2019-04-03T18:06:12.606Z,40.67
2019-04-03T18:08:45.116Z,40.51
2019-04-03T18:11:16.339Z,40.38
2019-04-03T18:13:48.744Z,40.64
2019-04-03T18:16:20.080Z,40.33
2019-04-03T18:18:51.652Z,40.54
2019-04-03T18:21:22.906Z,41.04
2019-04-03T18:23:54.397Z,41.12
2019-04-03T18:26:25.638Z,40.93
2019-04-03T18:28:56.883Z,41.54
2019-04-03T18:31:28.124Z,41.25
2019-04-03T18:33:59.394Z,42.02
2019-04-03T18:36:31.352Z,42.10
2019-04-03T18:39:03.985Z,42.17
2019-04-03T18:41:35.330Z,42.63
2019-04-03T18:44:06.517Z,43.06
2019-04-03T18:46:37.713Z,43.50
2019-04-03T18:49:08.971Z,43.90
2019-04-03T18:51:40.178Z,44.06
2019-04-03T18:54:12.135Z,44.51
2019-04-03T18:56:45.669Z,44.53
2019-04-03T18:59:16.617Z,44.71
2019-04-03T19:01:48.012Z,44.87
2019-04-03T19:04:19.607Z,45.27
2019-04-03T19:06:50.847Z,45.25
2019-04-03T19:09:22.318Z,44.51
2019-04-03T19:11:53.584Z,44.73
2019-04-03T19:14:27.499Z,44.58
2019-04-03T19:16:58.959Z,44.78
2019-04-03T19:19:30.276Z,44.15
2019-04-03T19:22:01.524Z,44.03
2019-04-03T19:24:32.771Z,43.74
2019-04-03T19:27:03.980Z,43.75
2019-04-03T19:29:36.274Z,43.63
2019-04-03T19:32:11.945Z,43.53
2019-04-03T19:34:41.540Z,43.53
2019-04-03T19:37:12.794Z,43.71
2019-04-03T19:39:44.052Z,43.91
2019-04-03T19:42:16.329Z,44.10
2019-04-03T19:44:49.194Z,44.29
2019-04-03T19:47:20.937Z,44.50
2019-04-03T19:49:52.228Z,44.47
2019-04-03T19:52:23.509Z,44.53
2019-04-03T19:54:54.849Z,44.66
2019-04-03T19:57:27.400Z,45.33
2019-04-03T20:00:01.060Z,45.04
2019-04-03T20:02:32.290Z,45.13
2019-04-03T20:05:03.606Z,45.17
2019-04-03T20:07:34.798Z,45.42
2019-04-03T20:10:07.345Z,45.51
2019-04-03T20:12:38.663Z,45.61
2019-04-03T20:15:09.997Z,45.85
2019-04-03T20:17:41.627Z,45.94
2019-04-03T20:20:12.950Z,46.22
2019-04-03T20:22:44.305Z,46.12
2019-04-03T20:25:15.614Z,46.26
2019-04-03T20:27:47.622Z,46.28
2019-04-03T20:30:20.315Z,46.10
2019-04-03T20:32:52.117Z,46.04
2019-04-03T20:35:23.454Z,45.89
2019-04-03T20:37:56.807Z,45.52
2019-04-03T20:40:28.041Z,45.43
2019-04-03T20:42:59.448Z,45.47
2019-04-03T20:45:30.709Z,45.84
2019-04-03T20:48:02.396Z,45.46
2019-04-03T20:50:33.960Z,45.44
2019-04-03T20:53:05.237Z,44.93
2019-04-03T20:55:36.531Z,44.93
2019-04-03T20:58:07.833Z,44.73
2019-04-03T21:00:39.075Z,44.59
2019-04-03T21:03:12.581Z,44.70
2019-04-03T21:05:44.398Z,44.74
2019-04-03T21:08:15.622Z,44.73
2019-04-03T21:10:46.910Z,44.80
2019-04-03T21:13:18.430Z,45.03
2019-04-03T21:15:54.114Z,45.17
2019-04-03T21:18:35.944Z,45.33
2019-04-03T21:21:17.696Z,45.09
2019-04-03T21:23:58.745Z,45.11
2019-04-03T21:26:39.797Z,45.52
2019-04-03T21:29:19.699Z,45.56
2019-04-03T21:32:06.273Z,45.59
2019-04-03T21:35:03.913Z,45.50
2019-04-03T21:37:41.675Z,45.68
2019-04-03T21:40:24.253Z,45.74
2019-04-03T21:43:02.316Z,45.84
2019-04-03T21:46:00.769Z,46.22
2019-04-03T21:48:39.597Z,46.30
2019-04-03T21:51:25.067Z,46.24
2019-04-03T21:54:05.043Z,45.86
2019-04-03T21:56:44.883Z,46.31
2019-04-03T21:59:23.120Z,46.57
2019-04-03T22:02:04.380Z,46.58
2019-04-03T22:04:41.872Z,46.93
2019-04-03T22:07:28.550Z,46.87
2019-04-03T22:10:21.929Z,47.46
2019-04-03T22:12:57.903Z,47.59
2019-04-03T22:15:34.884Z,47.95
2019-04-03T22:18:24.806Z,48.24
2019-04-03T22:21:12.693Z,48.07
2019-04-03T22:23:49.059Z,48.01
2019-04-03T22:26:24.182Z,47.53
2019-04-03T22:28:58.961Z,47.64
2019-04-03T22:31:35.263Z,48.18
2019-04-03T22:34:25.635Z,47.99
2019-04-03T22:37:04.480Z,48.06
2019-04-03T22:39:39.038Z,47.86
2019-04-03T22:42:11.206Z,47.52
2019-04-03T22:44:42.794Z,47.42
2019-04-03T22:47:14.162Z,47.84
2019-04-03T22:49:45.475Z,47.55
2019-04-03T22:52:16.749Z,47.61
2019-04-03T22:54:48.580Z,48.04
2019-04-03T22:57:20.217Z,48.81
2019-04-03T22:59:54.475Z,49.00
2019-04-03T23:02:24.809Z,49.19
2019-04-03T23:04:55.872Z,49.71
2019-04-03T23:07:27.102Z,50.19
2019-04-03T23:09:58.186Z,50.13
2019-04-03T23:12:29.669Z,50.89
2019-04-03T23:15:00.859Z,51.07
2019-04-03T23:17:32.227Z,51.04
2019-04-03T23:20:03.761Z,50.81
2019-04-03T23:22:35.376Z,50.96
2019-04-03T23:25:06.631Z,51.84
2019-04-03T23:27:38.215Z,51.71
2019-04-03T23:30:10.753Z,52.11
2019-04-03T23:32:46.102Z,52.35
2019-04-03T23:35:20.377Z,52.20
2019-04-03T23:37:50.523Z,52.36
2019-04-03T23:40:25.251Z,52.57
2019-04-03T23:42:58.004Z,52.51
2019-04-03T23:45:31.266Z,52.71
2019-04-03T23:48:02.788Z,52.73
2019-04-03T23:50:35.470Z,52.51
2019-04-03T23:53:06.759Z,52.42
2019-04-03T23:55:40.227Z,52.59
2019-04-03T23:58:12.372Z,52.58
